Time;durP1;ratioP1;P1;durP2;ratioP2;P2;SDS_P1;SDS_P2;PMS_P1;PMS_P2;Temp;Humidity;BMP_temperature;BMP_pressure;BME280_temperature;BME280_humidity;BME280_pressure;Samples;Min_cycle;Max_cycle;Signal;HPM_P1;HPM_P2
2024/03/05 00:00:11;;;;;;;27.33;16.42;;;;;;;-146.18;100.00;67994.34;10357241;27;20044;-72
2024/03/05 00:05:09;;;;;;;26.25;17.35;;;;;;;-146.18;100.00;67994.34;10351239;27;20102;-72
2024/03/05 00:10:07;;;;;;;21.23;16.27;;;;;;;-146.18;100.00;67994.34;10353376;27;20052;-72
2024/03/05 00:15:07;;;;;;;24.25;16.35;;;;;;;-146.18;100.00;67994.34;10350497;27;20132;-72
2024/03/05 00:20:03;;;;;;;22.20;16.88;;;;;;;-146.18;100.00;67994.34;10353407;27;20044;-71
2024/03/05 00:25:00;;;;;;;19.55;14.60;;;;;;;-146.18;100.00;67994.34;10352517;28;20121;-71
2024/03/05 00:29:56;;;;;;;24.75;16.08;;;;;;;-146.18;100.00;67994.34;10348224;28;20089;-75
2024/03/05 00:34:53;;;;;;;21.90;16.17;;;;;;;-146.18;100.00;67994.34;10348673;27;20051;-70
2024/03/05 00:39:49;;;;;;;19.85;15.52;;;;;;;-146.18;100.00;67994.34;10348415;27;20040;-72
2024/03/05 00:44:46;;;;;;;24.88;15.73;;;;;;;-146.18;100.00;67994.34;10360157;27;20518;-70
2024/03/05 00:49:43;;;;;;;24.77;16.15;;;;;;;-146.18;100.00;67994.34;10352525;27;20523;-70
2024/03/05 00:54:39;;;;;;;22.73;17.45;;;;;;;-146.18;100.00;67994.34;10354451;27;20043;-70
2024/03/05 00:59:36;;;;;;;21.88;16.80;;;;;;;-146.18;100.00;67994.34;10342377;28;20047;-72
2024/03/05 01:04:32;;;;;;;27.10;16.73;;;;;;;-146.18;100.00;67994.34;10351043;27;20453;-72
2024/03/05 01:09:30;;;;;;;25.92;15.73;;;;;;;-146.18;100.00;67994.34;10345876;27;20062;-70
2024/03/05 01:14:27;;;;;;;25.45;16.95;;;;;;;-146.18;100.00;67994.34;10350046;27;20048;-70
2024/03/05 01:19:23;;;;;;;25.20;16.60;;;;;;;-146.18;100.00;67994.34;10352499;28;20093;-70
2024/03/05 01:24:21;;;;;;;23.60;16.33;;;;;;;-146.18;100.00;67994.34;10346062;27;20074;-70
2024/03/05 01:29:18;;;;;;;22.38;16.45;;;;;;;-146.18;100.00;67994.34;10345845;27;20051;-71
2024/03/05 01:34:14;;;;;;;24.98;16.13;;;;;;;-146.18;100.00;67994.34;10350035;27;20040;-70
2024/03/05 01:39:11;;;;;;;20.85;15.30;;;;;;;-146.18;100.00;67994.34;10355708;27;20666;-71
2024/03/05 01:44:07;;;;;;;20.40;15.35;;;;;;;-146.18;100.00;67994.34;10364863;27;20044;-70
2024/03/05 01:49:04;;;;;;;21.58;16.00;;;;;;;-146.18;100.00;67994.34;10352829;27;20047;-71
2024/03/05 01:54:01;;;;;;;27.10;17.08;;;;;;;-146.18;100.00;67994.34;10357219;27;20105;-71
2024/03/05 01:58:59;;;;;;;27.90;17.02;;;;;;;-146.18;100.00;67994.34;10357425;27;20500;-70
2024/03/05 02:03:58;;;;;;;22.80;16.63;;;;;;;-146.18;100.00;67994.34;10358166;27;20051;-71
2024/03/05 02:08:55;;;;;;;19.35;15.98;;;;;;;-146.18;100.00;67994.34;10354300;27;20036;-70
2024/03/05 02:13:52;;;;;;;20.88;15.43;;;;;;;-146.18;100.00;67994.34;10345899;27;20050;-70
2024/03/05 02:18:48;;;;;;;22.95;16.77;;;;;;;-146.18;100.00;67994.34;10358642;27;20048;-70
2024/03/05 02:23:45;;;;;;;25.42;16.92;;;;;;;-146.18;100.00;67994.34;10354684;27;20162;-70
2024/03/05 02:28:41;;;;;;;25.95;16.50;;;;;;;-146.18;100.00;67994.34;10362002;27;20040;-70
2024/03/05 02:33:39;;;;;;;25.90;16.00;;;;;;;-146.18;100.00;67994.34;10351458;27;20514;-71
2024/03/05 02:38:38;;;;;;;23.52;16.55;;;;;;;-146.18;100.00;67994.34;10354341;27;20052;-70
2024/03/05 02:43:35;;;;;;;22.42;15.95;;;;;;;-146.18;100.00;67994.34;10354805;28;20044;-72
2024/03/05 02:48:32;;;;;;;22.50;14.48;;;;;;;-146.18;100.00;67994.34;10356557;27;20136;-70
2024/03/05 02:53:29;;;;;;;23.98;17.13;;;;;;;-146.18;100.00;67994.34;10354838;27;20048;-72
2024/03/05 02:58:26;;;;;;;33.35;17.48;;;;;;;-146.18;100.00;67994.34;10355445;28;20040;-70
2024/03/05 03:03:22;;;;;;;23.80;15.73;;;;;;;-146.18;100.00;67994.34;10354355;27;20044;-70
2024/03/05 03:08:19;;;;;;;34.65;16.35;;;;;;;-146.18;100.00;67994.34;10351779;27;20062;-70
2024/03/05 03:13:15;;;;;;;30.33;16.35;;;;;;;-146.18;100.00;67994.34;10354624;27;20040;-72
2024/03/05 03:18:12;;;;;;;18.40;15.25;;;;;;;-146.18;100.00;67994.34;10353304;27;20484;-70
2024/03/05 03:23:09;;;;;;;23.55;15.88;;;;;;;-146.18;100.00;67994.34;10357263;27;20054;-70
2024/03/05 03:28:05;;;;;;;25.83;16.38;;;;;;;-146.18;100.00;67994.34;10347261;27;20079;-70
2024/03/05 03:33:04;;;;;;;30.35;16.30;;;;;;;-146.18;100.00;67994.34;10351733;27;20051;-70
2024/03/05 03:38:01;;;;;;;23.55;15.75;;;;;;;-146.18;100.00;67994.34;10351953;27;20050;-70
2024/03/05 03:42:58;;;;;;;26.23;16.35;;;;;;;-146.18;100.00;67994.34;10338364;27;20083;-72
2024/03/05 03:47:54;;;;;;;24.30;15.82;;;;;;;-146.18;100.00;67994.34;10354938;27;20548;-71
2024/03/05 03:52:51;;;;;;;24.67;16.60;;;;;;;-146.18;100.00;67994.34;10349929;27;20126;-71
2024/03/05 03:57:47;;;;;;;22.42;16.02;;;;;;;-146.18;100.00;67994.34;10343927;27;20050;-71
2024/03/05 04:02:45;;;;;;;20.95;16.17;;;;;;;-146.18;100.00;67994.34;10334873;27;20052;-72
2024/03/05 04:07:42;;;;;;;25.65;16.40;;;;;;;-146.18;100.00;67994.34;10363043;27;20047;-71
2024/03/05 04:12:39;;;;;;;22.17;17.02;;;;;;;-146.18;100.00;67994.34;10349494;27;20105;-70
2024/03/05 04:17:38;;;;;;;25.77;16.73;;;;;;;-146.18;100.00;67994.34;10344920;27;20055;-71
2024/03/05 04:22:37;;;;;;;27.63;16.98;;;;;;;-146.18;100.00;67994.34;10346888;27;20109;-72
2024/03/05 04:27:36;;;;;;;25.10;17.83;;;;;;;-146.18;100.00;67994.34;10361356;27;20131;-70
2024/03/05 04:32:34;;;;;;;29.83;18.55;;;;;;;-146.18;100.00;67994.34;10353011;27;20050;-72
2024/03/05 04:37:31;;;;;;;21.70;17.40;;;;;;;-146.18;100.00;67994.34;10335853;27;20131;-71
2024/03/05 04:42:27;;;;;;;25.58;17.00;;;;;;;-146.18;100.00;67994.34;10346066;27;20040;-70
2024/03/05 04:47:25;;;;;;;26.55;17.70;;;;;;;-146.18;100.00;67994.34;10344563;27;20423;-72
2024/03/05 04:52:21;;;;;;;25.05;17.20;;;;;;;-146.18;100.00;67994.34;10348557;27;20113;-70
2024/03/05 04:57:18;;;;;;;23.15;16.63;;;;;;;-146.18;100.00;67994.34;10340407;28;21205;-71
2024/03/05 05:02:15;;;;;;;23.55;17.70;;;;;;;-146.18;100.00;67994.34;10334792;28;20063;-70
2024/03/05 05:07:11;;;;;;;20.75;17.40;;;;;;;-146.18;100.00;67994.34;10343635;27;20052;-71
2024/03/05 05:12:08;;;;;;;27.80;18.98;;;;;;;-146.18;100.00;67994.34;10358504;27;20055;-70
2024/03/05 05:17:04;;;;;;;25.27;18.73;;;;;;;-146.18;100.00;67994.34;10352157;28;20093;-71
2024/03/05 05:22:02;;;;;;;24.55;18.52;;;;;;;-146.18;100.00;67994.34;10343473;27;20128;-70
2024/03/05 05:26:58;;;;;;;22.10;17.45;;;;;;;-146.18;100.00;67994.34;10349011;27;20150;-71
2024/03/05 05:31:55;;;;;;;27.13;19.85;;;;;;;-146.18;100.00;67994.34;10352463;27;21254;-70
2024/03/05 05:36:51;;;;;;;23.88;18.58;;;;;;;-146.18;100.00;67994.34;10350495;28;20044;-70
2024/03/05 05:41:48;;;;;;;22.98;18.33;;;;;;;-146.18;100.00;67994.34;10346452;27;20140;-70
2024/03/05 05:46:45;;;;;;;21.90;16.75;;;;;;;-146.18;100.00;67994.34;10346332;27;20097;-71
2024/03/05 05:51:42;;;;;;;23.30;18.63;;;;;;;-146.18;100.00;67994.34;10335004;27;20039;-71
2024/03/05 05:56:38;;;;;;;28.40;18.52;;;;;;;-146.18;100.00;67994.34;10348707;27;20040;-71
2024/03/05 06:01:37;;;;;;;22.75;18.33;;;;;;;-146.18;100.00;67994.34;10361232;27;20032;-71
2024/03/05 06:06:34;;;;;;;31.27;19.80;;;;;;;-146.18;100.00;67994.34;10355710;27;20093;-71
2024/03/05 06:11:30;;;;;;;20.83;18.02;;;;;;;-146.18;100.00;67994.34;10358393;27;20044;-71
2024/03/05 06:16:29;;;;;;;22.48;17.75;;;;;;;-146.18;100.00;67994.34;10361649;27;20078;-70
2024/03/05 06:21:26;;;;;;;24.30;18.05;;;;;;;-146.18;100.00;67994.34;10349362;27;20045;-70
2024/03/05 06:26:22;;;;;;;22.10;18.08;;;;;;;-146.18;100.00;67994.34;10357111;27;20591;-72
2024/03/05 06:31:19;;;;;;;29.00;18.75;;;;;;;-146.18;100.00;67994.34;10356498;27;20073;-73
2024/03/05 06:36:15;;;;;;;30.10;19.50;;;;;;;-146.18;100.00;67994.34;10359230;28;20059;-70
2024/03/05 06:41:12;;;;;;;23.48;19.30;;;;;;;-146.18;100.00;67994.34;10362599;27;20044;-72
2024/03/05 06:46:09;;;;;;;25.48;18.23;;;;;;;-146.18;100.00;67994.34;10353325;27;20059;-72
2024/03/05 06:51:26;;;;;;;19.77;17.25;;;;;;;-146.18;100.00;67994.34;10357968;27;20113;-72
2024/03/05 06:56:41;;;;;;;28.60;16.85;;;;;;;-146.18;100.00;67994.34;10354236;27;20048;-72
2024/03/05 07:01:37;;;;;;;24.75;17.17;;;;;;;-146.18;100.00;67994.34;10356907;27;20068;-72
2024/03/05 07:06:34;;;;;;;20.92;17.38;;;;;;;-146.18;100.00;67994.34;10363159;27;20043;-72
2024/03/05 07:11:31;;;;;;;28.17;17.17;;;;;;;-146.18;100.00;67994.34;10360072;27;20054;-72
2024/03/05 07:16:31;;;;;;;18.75;15.43;;;;;;;-146.18;100.00;67994.34;10353040;27;20043;-73
2024/03/05 07:21:31;;;;;;;20.25;16.23;;;;;;;-146.18;100.00;67994.34;10346167;28;20056;-70
2024/03/05 07:26:30;;;;;;;20.02;15.05;;;;;;;-146.18;100.00;67994.34;10349080;27;20105;-70
2024/03/05 07:31:28;;;;;;;19.33;15.35;;;;;;;-146.18;100.00;67994.34;10344766;27;20048;-72
2024/03/05 07:36:24;;;;;;;19.80;15.38;;;;;;;-146.18;100.00;67994.34;10354789;27;20101;-70
2024/03/05 07:41:21;;;;;;;18.10;14.27;;;;;;;-146.18;100.00;67994.34;10350475;27;20071;-71
2024/03/05 07:46:29;;;;;;;19.05;14.57;;;;;;;-146.18;100.00;67994.34;10353509;27;20054;-71
2024/03/05 07:51:27;;;;;;;17.15;15.30;;;;;;;-146.18;100.00;67994.34;10345853;27;20390;-70
2024/03/05 07:56:29;;;;;;;16.60;14.18;;;;;;;-146.18;100.00;67994.34;10351867;27;20052;-71
2024/03/05 08:01:26;;;;;;;15.50;13.68;;;;;;;-146.18;100.00;67994.34;10353312;27;20419;-72
2024/03/05 08:06:22;;;;;;;17.45;14.02;;;;;;;-146.18;100.00;67994.34;10349536;27;20715;-71
2024/03/05 08:11:19;;;;;;;16.27;12.13;;;;;;;-146.18;100.00;67994.34;10352881;27;20579;-72
2024/03/05 08:16:16;;;;;;;15.85;13.52;;;;;;;-146.18;100.00;67994.34;10351508;27;20051;-70
2024/03/05 08:21:13;;;;;;;16.42;12.73;;;;;;;-146.18;100.00;67994.34;10356374;27;20510;-71
2024/03/05 08:26:11;;;;;;;18.25;13.23;;;;;;;-146.18;100.00;67994.34;10350749;27;20083;-71
2024/03/05 08:31:10;;;;;;;16.67;13.27;;;;;;;-146.18;100.00;67994.34;10348031;27;20055;-71
2024/03/05 08:36:06;;;;;;;17.60;12.95;;;;;;;-146.18;100.00;67994.34;10350084;27;20067;-70
2024/03/05 08:41:03;;;;;;;14.55;13.00;;;;;;;-146.18;100.00;67994.34;10356683;27;20212;-71
2024/03/05 08:46:00;;;;;;;19.88;12.57;;;;;;;-146.18;100.00;67994.34;10349218;27;20397;-71
2024/03/05 08:51:00;;;;;;;14.82;13.35;;;;;;;-146.18;100.00;67994.34;10349052;27;20066;-71
2024/03/05 08:55:56;;;;;;;13.38;11.98;;;;;;;-146.18;100.00;67994.34;10359713;27;20099;-71
2024/03/05 09:00:53;;;;;;;13.73;11.63;;;;;;;-146.18;100.00;67994.34;10342017;27;20466;-71
2024/03/05 09:05:50;;;;;;;13.73;11.25;;;;;;;-146.18;100.00;67994.34;10348066;27;20135;-71
2024/03/05 09:10:48;;;;;;;13.00;11.57;;;;;;;-146.18;100.00;67994.34;10345503;27;20055;-71
2024/03/05 09:15:44;;;;;;;12.80;11.45;;;;;;;-146.18;100.00;67994.34;10347940;27;20044;-70
2024/03/05 09:20:41;;;;;;;16.98;12.30;;;;;;;-146.18;100.00;67994.34;10347822;27;20055;-71
2024/03/05 09:25:41;;;;;;;16.52;11.20;;;;;;;-146.18;100.00;67994.34;10349689;27;20585;-72
2024/03/05 09:30:39;;;;;;;16.73;12.48;;;;;;;-146.18;100.00;67994.34;10340720;28;20047;-70
2024/03/05 09:35:35;;;;;;;12.68;10.55;;;;;;;-146.18;100.00;67994.34;10345249;27;20499;-72
2024/03/05 09:40:33;;;;;;;11.70;10.02;;;;;;;-146.18;100.00;67994.34;10351296;27;20039;-73
2024/03/05 09:45:36;;;;;;;18.17;12.40;;;;;;;-146.18;100.00;67994.34;10350207;27;20250;-73
2024/03/05 09:50:33;;;;;;;19.15;11.70;;;;;;;-146.18;100.00;67994.34;10344878;27;20158;-73
2024/03/05 09:55:30;;;;;;;13.88;10.63;;;;;;;-146.18;100.00;67994.34;10351296;27;20122;-70
2024/03/05 10:00:31;;;;;;;15.05;10.63;;;;;;;-146.18;100.00;67994.34;10359580;27;20067;-71
2024/03/05 10:05:27;;;;;;;17.23;11.40;;;;;;;-146.18;100.00;67994.34;10353274;27;20035;-70
2024/03/05 10:10:30;;;;;;;15.70;10.70;;;;;;;-146.18;100.00;67994.34;10360030;27;20123;-71
2024/03/05 10:15:27;;;;;;;12.88;9.50;;;;;;;-146.18;100.00;67994.34;10360255;27;20119;-72
2024/03/05 10:20:32;;;;;;;12.48;9.98;;;;;;;-146.18;100.00;67994.34;10353957;27;20051;-70
2024/03/05 10:25:29;;;;;;;16.67;10.30;;;;;;;-146.18;100.00;67994.34;10361771;27;20071;-71
2024/03/05 10:30:36;;;;;;;12.07;9.43;;;;;;;-146.18;100.00;67994.34;10361863;27;20054;-72
2024/03/05 10:35:33;;;;;;;11.05;9.82;;;;;;;-146.18;100.00;67994.34;10350599;27;20679;-70
2024/03/05 10:40:31;;;;;;;10.98;9.10;;;;;;;-146.18;100.00;67994.34;10347485;27;20085;-71
2024/03/05 10:45:31;;;;;;;11.65;8.98;;;;;;;-146.18;100.00;67994.34;10345672;28;20044;-70
2024/03/05 10:50:28;;;;;;;14.82;9.68;;;;;;;-146.18;100.00;67994.34;10355309;27;20040;-71
2024/03/05 10:55:24;;;;;;;10.35;7.75;;;;;;;-146.18;100.00;67994.34;10362752;27;20059;-70
2024/03/05 11:00:24;;;;;;;12.95;9.55;;;;;;;-146.18;100.00;67994.34;10360092;27;27332;-73
2024/03/05 11:05:21;;;;;;;10.93;9.10;;;;;;;-146.18;100.00;67994.34;10347392;27;20067;-73
2024/03/05 11:10:18;;;;;;;9.95;8.70;;;;;;;-146.18;100.00;67994.34;10348773;27;20040;-71
2024/03/05 11:15:15;;;;;;;10.88;8.65;;;;;;;-146.18;100.00;67994.34;10354424;27;20071;-72
2024/03/05 11:20:42;;;;;;;16.08;7.55;;;;;;;-146.18;100.00;67994.34;10356804;27;20535;-74
2024/03/05 11:25:48;;;;;;;10.63;8.52;;;;;;;-146.18;100.00;67994.34;10353922;27;20036;-73
2024/03/05 11:30:44;;;;;;;10.45;7.80;;;;;;;-146.18;100.00;67994.34;10347398;27;20044;-72
2024/03/05 11:35:43;;;;;;;10.15;8.48;;;;;;;-146.18;100.00;67994.34;10336462;27;20048;-72
2024/03/05 11:40:40;;;;;;;10.13;7.57;;;;;;;-146.18;100.00;67994.34;10344074;27;20040;-72
2024/03/05 11:45:49;;;;;;;15.20;10.57;;;;;;;-146.18;100.00;67994.34;10349180;27;20071;-73
2024/03/05 11:50:54;;;;;;;9.15;7.90;;;;;;;-146.18;100.00;67994.34;10349707;27;20138;-72
2024/03/05 11:55:52;;;;;;;11.18;8.02;;;;;;;-146.18;100.00;67994.34;10355643;27;20089;-72
2024/03/05 12:00:49;;;;;;;15.63;7.55;;;;;;;-146.18;100.00;67994.34;10347438;28;20047;-72
2024/03/05 12:05:46;;;;;;;11.02;7.90;;;;;;;-146.18;100.00;67994.34;10356989;27;20592;-72
2024/03/05 12:10:43;;;;;;;11.55;7.97;;;;;;;-146.18;100.00;67994.34;10353944;27;20040;-72
2024/03/05 12:15:39;;;;;;;8.82;7.22;;;;;;;-146.18;100.00;67994.34;10351623;27;20074;-72
2024/03/05 12:20:38;;;;;;;9.73;7.18;;;;;;;-146.18;100.00;67994.34;10352216;27;20969;-72
2024/03/05 12:25:35;;;;;;;13.02;7.55;;;;;;;-146.18;100.00;67994.34;10348069;27;20044;-72
2024/03/05 12:30:35;;;;;;;11.52;7.50;;;;;;;-146.18;100.00;67994.34;10353896;28;20040;-72
2024/03/05 12:35:32;;;;;;;8.00;7.20;;;;;;;-146.18;100.00;67994.34;10351149;27;20043;-73
2024/03/05 12:40:31;;;;;;;8.98;7.57;;;;;;;-146.18;100.00;67994.34;10351912;27;20051;-72
2024/03/05 12:45:27;;;;;;;8.00;7.25;;;;;;;-146.18;100.00;67994.34;10343464;28;20036;-69
2024/03/05 12:50:24;;;;;;;7.55;6.85;;;;;;;-146.18;100.00;67994.34;10350957;28;20036;-72
2024/03/05 12:55:21;;;;;;;6.95;6.28;;;;;;;-146.18;100.00;67994.34;10341549;27;20458;-70
2024/03/05 13:00:17;;;;;;;9.07;8.10;;;;;;;-146.18;100.00;67994.34;10354319;28;20125;-72
2024/03/05 13:05:14;;;;;;;9.93;6.95;;;;;;;-146.18;100.00;67994.34;10344145;27;20047;-72
2024/03/05 13:10:11;;;;;;;10.48;7.47;;;;;;;-146.18;100.00;67994.34;10349696;27;20059;-72
2024/03/05 13:15:08;;;;;;;8.07;6.78;;;;;;;-146.18;100.00;67994.34;10346174;27;20052;-72
2024/03/05 13:20:18;;;;;;;10.45;7.03;;;;;;;-146.18;100.00;67994.34;10349982;28;20039;-71
2024/03/05 13:25:15;;;;;;;10.60;7.72;;;;;;;-146.18;100.00;67994.34;10338782;28;20056;-72
2024/03/05 13:30:16;;;;;;;8.20;7.35;;;;;;;-146.18;100.00;67994.34;10350058;27;20059;-72
2024/03/05 13:35:14;;;;;;;8.13;6.40;;;;;;;-146.18;100.00;67994.34;10356628;27;20552;-72
2024/03/05 13:40:11;;;;;;;10.45;7.00;;;;;;;-146.18;100.00;67994.34;10354261;28;20068;-72
2024/03/05 13:45:12;;;;;;;8.75;7.57;;;;;;;-146.18;100.00;67994.34;10355780;28;20522;-72
2024/03/05 13:50:11;;;;;;;5.72;5.22;;;;;;;-146.18;100.00;67994.34;10356541;27;20071;-71
2024/03/05 13:55:10;;;;;;;18.10;7.53;;;;;;;-146.18;100.00;67994.34;10354296;27;20052;-71
2024/03/05 14:00:07;;;;;;;9.95;7.63;;;;;;;-146.18;100.00;67994.34;10358547;27;20048;-71
2024/03/05 14:05:04;;;;;;;9.15;7.57;;;;;;;-146.18;100.00;67994.34;10356112;27;20094;-72
2024/03/05 14:10:01;;;;;;;9.63;7.50;;;;;;;-146.18;100.00;67994.34;10344217;28;20055;-71
2024/03/05 14:14:57;;;;;;;8.65;7.18;;;;;;;-146.18;100.00;67994.34;10354399;28;20500;-72
2024/03/05 14:19:54;;;;;;;8.60;7.70;;;;;;;-146.18;100.00;67994.34;10357782;27;20047;-73
2024/03/05 14:24:52;;;;;;;9.25;8.20;;;;;;;-146.18;100.00;67994.34;10346703;27;20101;-72
2024/03/05 14:29:51;;;;;;;10.95;7.22;;;;;;;-146.18;100.00;67994.34;10362508;27;20039;-72
2024/03/05 14:34:47;;;;;;;15.38;8.00;;;;;;;-146.18;100.00;67994.34;10352669;27;20109;-72
2024/03/05 14:39:44;;;;;;;13.63;8.10;;;;;;;-146.18;100.00;67994.34;10351993;27;20059;-71
2024/03/05 14:44:40;;;;;;;9.20;7.20;;;;;;;-146.18;100.00;67994.34;10371729;27;20040;-72
2024/03/05 14:49:37;;;;;;;10.18;7.80;;;;;;;-146.18;100.00;67994.34;10363998;27;20047;-71
2024/03/05 14:54:33;;;;;;;13.02;7.40;;;;;;;-146.18;100.00;67994.34;10365663;27;20085;-71
2024/03/05 14:59:30;;;;;;;9.77;7.63;;;;;;;-146.18;100.00;67994.34;10350644;27;20132;-72
2024/03/05 15:04:26;;;;;;;14.38;8.63;;;;;;;-146.18;100.00;67994.34;10347590;28;20105;-72
2024/03/05 15:09:23;;;;;;;13.77;8.60;;;;;;;-146.18;100.00;67994.34;10345406;27;20127;-71
2024/03/05 15:14:20;;;;;;;9.32;8.10;;;;;;;-146.18;100.00;67994.34;10363192;27;20067;-71
2024/03/05 15:19:16;;;;;;;19.17;8.75;;;;;;;-146.18;100.00;67994.34;10353991;27;20506;-72
2024/03/05 15:24:13;;;;;;;12.00;8.70;;;;;;;-146.18;100.00;67994.34;10351061;27;20046;-72
2024/03/05 15:29:12;;;;;;;15.80;9.35;;;;;;;-146.18;100.00;67994.34;10351411;27;20113;-71
2024/03/05 15:34:09;;;;;;;10.55;8.30;;;;;;;-146.18;100.00;67994.34;10363127;28;20040;-72
2024/03/05 15:39:08;;;;;;;9.50;8.13;;;;;;;-146.18;100.00;67994.34;10345444;27;20629;-71
2024/03/05 15:44:05;;;;;;;12.15;8.57;;;;;;;-146.18;100.00;67994.34;10349500;27;20089;-71
2024/03/05 15:49:03;;;;;;;13.98;9.43;;;;;;;-146.18;100.00;67994.34;10352468;27;20044;-71
2024/03/05 15:53:59;;;;;;;12.85;8.85;;;;;;;-146.18;100.00;67994.34;10355746;27;20042;-72
2024/03/05 16:04:11;;;;;;;16.52;8.82;;;;;;;-146.18;100.00;67994.34;10354920;28;20042;-72
2024/03/05 16:09:27;;;;;;;9.07;8.15;;;;;;;-146.18;100.00;67994.34;10338495;28;20105;-71
2024/03/05 16:14:24;;;;;;;11.40;9.40;;;;;;;-146.18;100.00;67994.34;10352313;27;20495;-71
2024/03/05 16:19:21;;;;;;;10.27;8.30;;;;;;;-146.18;100.00;67994.34;10345518;27;20048;-71
2024/03/05 16:24:17;;;;;;;9.90;8.90;;;;;;;-146.18;100.00;67994.34;10341933;27;20211;-72
2024/03/05 16:29:14;;;;;;;12.27;9.43;;;;;;;-146.18;100.00;67994.34;10354973;27;20117;-72
2024/03/05 16:34:15;;;;;;;10.77;8.63;;;;;;;-146.18;100.00;67994.34;10331452;28;20048;-72
2024/03/05 16:39:18;;;;;;;14.45;9.07;;;;;;;-146.18;100.00;67994.34;10352789;27;20071;-72
2024/03/05 16:44:14;;;;;;;14.00;9.00;;;;;;;-146.18;100.00;67994.34;10352274;27;20097;-72
2024/03/05 16:49:11;;;;;;;11.65;9.57;;;;;;;-146.18;100.00;67994.34;10335780;28;20040;-72
2024/03/05 16:54:08;;;;;;;9.93;8.38;;;;;;;-146.18;100.00;67994.34;10353150;27;20457;-72
2024/03/05 16:59:07;;;;;;;10.20;8.77;;;;;;;-146.18;100.00;67994.34;10351000;27;20032;-72
2024/03/05 17:04:08;;;;;;;11.43;9.10;;;;;;;-146.18;100.00;67994.34;10345981;27;20399;-72
2024/03/05 17:09:07;;;;;;;10.23;9.13;;;;;;;-146.18;100.00;67994.34;10351072;27;20039;-72
2024/03/05 17:14:04;;;;;;;10.32;8.95;;;;;;;-146.18;100.00;67994.34;10340577;27;20051;-72
2024/03/05 17:19:01;;;;;;;10.25;9.35;;;;;;;-146.18;100.00;67994.34;10353122;27;20047;-72
2024/03/05 17:23:58;;;;;;;9.40;8.50;;;;;;;-146.18;100.00;67994.34;10350251;27;20044;-72
2024/03/05 17:28:56;;;;;;;10.35;9.27;;;;;;;-146.18;100.00;67994.34;10355508;27;20411;-72
2024/03/05 17:33:52;;;;;;;11.35;9.50;;;;;;;-146.18;100.00;67994.34;10348080;27;20392;-72
2024/03/05 17:38:49;;;;;;;10.73;9.73;;;;;;;-146.18;100.00;67994.34;10350606;27;20048;-72
2024/03/05 17:43:45;;;;;;;13.32;10.27;;;;;;;-146.18;100.00;67994.34;10353138;27;20056;-71
2024/03/05 17:48:47;;;;;;;14.73;8.90;;;;;;;-146.18;100.00;67994.34;10353725;27;20222;-72
2024/03/05 17:53:44;;;;;;;11.93;9.63;;;;;;;-146.18;100.00;67994.34;10352643;27;20090;-71
2024/03/05 17:58:40;;;;;;;10.82;9.68;;;;;;;-146.18;100.00;67994.34;10364320;27;20044;-72
2024/03/05 18:03:37;;;;;;;15.32;10.23;;;;;;;-146.18;100.00;67994.34;10351211;27;20131;-72
2024/03/05 18:08:34;;;;;;;15.50;10.23;;;;;;;-146.18;100.00;67994.34;10350290;27;20609;-71
2024/03/05 18:13:31;;;;;;;12.10;10.73;;;;;;;-146.18;100.00;67994.34;10338272;27;20044;-72
2024/03/05 18:18:27;;;;;;;12.10;10.05;;;;;;;-146.18;100.00;67994.34;10351982;27;20048;-71
2024/03/05 18:23:24;;;;;;;16.73;10.35;;;;;;;-146.18;100.00;67994.34;10350318;27;20064;-72
2024/03/05 18:28:22;;;;;;;12.77;10.45;;;;;;;-146.18;100.00;67994.34;10353301;27;20040;-71
2024/03/05 18:33:21;;;;;;;14.50;10.75;;;;;;;-146.18;100.00;67994.34;10333795;27;20952;-72
2024/03/05 18:38:18;;;;;;;15.68;10.77;;;;;;;-146.18;100.00;67994.34;10353960;27;20064;-71
2024/03/05 18:43:27;;;;;;;16.92;11.70;;;;;;;-146.18;100.00;67994.34;10350893;27;20117;-71
2024/03/05 18:48:24;;;;;;;15.13;11.43;;;;;;;-146.18;100.00;67994.34;10335115;27;20269;-71
2024/03/05 18:53:21;;;;;;;18.35;12.60;;;;;;;-146.18;100.00;67994.34;10346776;27;20075;-72
2024/03/05 18:58:34;;;;;;;13.98;11.90;;;;;;;-146.18;100.00;67994.34;10346365;27;20533;-72
2024/03/05 19:03:31;;;;;;;19.92;12.43;;;;;;;-146.18;100.00;67994.34;10350253;27;20111;-71
2024/03/05 19:08:27;;;;;;;17.35;11.50;;;;;;;-146.18;100.00;67994.34;10352630;27;20105;-71
2024/03/05 19:13:24;;;;;;;19.92;12.68;;;;;;;-146.18;100.00;67994.34;10350778;27;20064;-72
2024/03/05 19:18:21;;;;;;;16.90;13.00;;;;;;;-146.18;100.00;67994.34;10345744;27;20048;-71
2024/03/05 19:23:17;;;;;;;15.40;12.10;;;;;;;-146.18;100.00;67994.34;10343157;27;20317;-71
2024/03/05 19:28:14;;;;;;;17.08;13.88;;;;;;;-146.18;100.00;67994.34;10339118;27;20047;-72
2024/03/05 19:33:11;;;;;;;16.75;13.35;;;;;;;-146.18;100.00;67994.34;10339823;28;20048;-71
2024/03/05 19:38:08;;;;;;;19.33;14.15;;;;;;;-146.18;100.00;67994.34;10352355;28;20048;-71
2024/03/05 19:43:07;;;;;;;21.20;14.27;;;;;;;-146.18;100.00;67994.34;10349804;27;20040;-71
2024/03/05 19:48:04;;;;;;;19.00;14.40;;;;;;;-146.18;100.00;67994.34;10354441;27;20101;-71
2024/03/05 19:53:02;;;;;;;20.20;14.38;;;;;;;-146.18;100.00;67994.34;10354974;27;20519;-72
2024/03/05 19:57:59;;;;;;;19.15;14.30;;;;;;;-146.18;100.00;67994.34;10347857;27;20044;-72
2024/03/05 20:02:55;;;;;;;18.13;14.93;;;;;;;-146.18;100.00;67994.34;10348474;27;20048;-72
2024/03/05 20:07:52;;;;;;;15.63;14.00;;;;;;;-146.18;100.00;67994.34;10347291;27;20040;-71
2024/03/05 20:12:49;;;;;;;17.45;14.75;;;;;;;-146.18;100.00;67994.34;10347113;27;20051;-71
2024/03/05 20:17:46;;;;;;;19.27;14.45;;;;;;;-146.18;100.00;67994.34;10346220;27;20044;-72
2024/03/05 20:22:45;;;;;;;20.58;14.13;;;;;;;-146.18;100.00;67994.34;10350177;27;20047;-72
2024/03/05 20:27:42;;;;;;;21.20;13.93;;;;;;;-146.18;100.00;67994.34;10341667;27;20040;-72
2024/03/05 20:32:40;;;;;;;18.25;14.93;;;;;;;-146.18;100.00;67994.34;10353803;27;20054;-72
2024/03/05 20:37:37;;;;;;;20.40;14.20;;;;;;;-146.18;100.00;67994.34;10340731;27;20044;-72
2024/03/05 20:42:33;;;;;;;19.25;14.77;;;;;;;-146.18;100.00;67994.34;10354944;27;20101;-72
2024/03/05 20:47:31;;;;;;;20.25;14.73;;;;;;;-146.18;100.00;67994.34;10348087;27;20121;-72
2024/03/05 20:52:28;;;;;;;17.58;14.10;;;;;;;-146.18;100.00;67994.34;10347769;27;20040;-72
2024/03/05 20:57:25;;;;;;;21.85;14.15;;;;;;;-146.18;100.00;67994.34;10337244;27;20175;-72
2024/03/05 21:02:21;;;;;;;22.17;15.02;;;;;;;-146.18;100.00;67994.34;10351049;27;20040;-72
2024/03/05 21:07:19;;;;;;;21.55;15.02;;;;;;;-146.18;100.00;67994.34;10349974;27;20523;-71
2024/03/05 21:12:15;;;;;;;18.58;13.00;;;;;;;-146.18;100.00;67994.34;10330391;27;20495;-71
2024/03/05 21:17:12;;;;;;;18.05;13.15;;;;;;;-146.18;100.00;67994.34;10323001;28;20463;-71
2024/03/05 21:22:08;;;;;;;20.02;13.85;;;;;;;-146.18;100.00;67994.34;10342097;27;20044;-71
2024/03/05 21:27:05;;;;;;;20.92;14.63;;;;;;;-146.18;100.00;67994.34;10347619;27;20044;-71
2024/03/05 21:32:16;;;;;;;17.23;14.40;;;;;;;-146.18;100.00;67994.34;10343932;27;20428;-71
2024/03/05 21:37:13;;;;;;;17.85;13.85;;;;;;;-146.18;100.00;67994.34;10344694;27;20982;-71
2024/03/05 21:42:09;;;;;;;16.08;13.73;;;;;;;-146.18;100.00;67994.34;10349481;27;20043;-71
2024/03/05 21:47:07;;;;;;;20.13;15.10;;;;;;;-146.18;100.00;67994.34;10341940;28;20043;-72
2024/03/05 21:52:03;;;;;;;18.85;13.25;;;;;;;-146.18;100.00;67994.34;10350203;27;20064;-71
2024/03/05 21:57:00;;;;;;;23.02;13.90;;;;;;;-146.18;100.00;67994.34;10358511;27;20076;-71